Flight Track Log - Related Links

Times and Time Zones

All times are in EDT time to prevent confusion due to time zone crossing. See the N566UA flight status page for this flight to view local times or setup timezone preferences in your user account.

Time Position Orientation Groundspeed Altitude Reporting Facility
EDT Latitude Longitude Course Direction KTS MPH feet Rate Location/Type
Sat 05:20:44 PM 29.9617 -95.3436 334° Northwest 181 208 700  Level Houston Center
Sat 05:21:33 PM 29.9386 -95.3897 240° Southwest 250 288 2,900 2,143 Climbing Houston Center
Sat 05:22:08 PM 29.9597 -95.4142 315° West 238 274 3,700 1,745 Climbing Houston Center
Sat 05:22:28 PM 29.9933 -95.4144 360° North 280 322 4,500 2,903 Climbing Houston Center
Sat 05:23:00 PM 30.2809 -95.5116 334° Northwest  Level FlightAware Approximate
Sat 05:23:10 PM 30.0247 -95.3839 40° Northeast 271 312 6,700  Level Houston Center
Sat 05:23:29 PM 30.0486 -95.3525 49° Northeast 281 323 8,400 3,581 Climbing Houston Center
Sat 05:24:00 PM 30.3818 -95.5677 334° Northwest  Level FlightAware Approximate
Sat 05:24:12 PM 30.0911 -95.3414 13° North 292 336 10,400  Level Houston Center
Sat 05:25:00 PM 30.4828 -95.6238 334° Northwest  Level FlightAware Approximate
Sat 05:25:13 PM 30.1747 -95.3336 North 298 343 14,000  Level Houston Center
Sat 05:26:00 PM 30.5844 -95.6783 334° Northwest  Level FlightAware Approximate
Sat 05:26:15 PM 30.2778 -95.3144 North 312 359 17,400  Level Houston Center
Sat 05:27:17 PM 30.3731 -95.3344 350° North 349 402 19,000 2,000 Climbing Houston Center
Sat 05:28:18 PM 30.4522 -95.4003 324° Northwest 367 422 21,500 1,951 Climbing Houston Center
Sat 05:29:20 PM 30.5397 -95.4744 324° Northwest 373 429 23,000 1,306 Climbing Houston Center
Sat 05:30:22 PM 30.6447 -95.5214 339° North 414 476 24,200 1,707 Climbing Houston Center
Sat 05:31:23 PM 30.7828 -95.4806 14° North 449 517 26,500 1,854 Climbing Houston Center
Sat 05:32:25 PM 30.9058 -95.4481 13° North 454 522 28,000 1,403 Climbing Houston Center
Sat 05:33:27 PM 31.0289 -95.4717 351° North 451 519 29,400 1,258 Climbing Houston Center
Sat 05:34:29 PM 31.1406 -95.5325 335° Northwest 439 505 30,600 1,268 Climbing Houston Center
Sat 05:35:30 PM 31.2439 -95.6097 327° Northwest 440 506 32,000 1,463 Climbing Houston Center
Sat 05:36:32 PM 31.3403 -95.6894 325° Northwest 429 494 33,600 1,452 Climbing Houston Center
Sat 05:37:34 PM 31.4369 -95.7672 326° Northwest 421 484 35,000 1,108 Climbing Houston Center
Sat 05:38:42 PM 31.5567 -95.8628 326° Northwest 412 474 36,000 469 Climbing Fort Worth Center
Sat 05:39:42 PM 31.6514 -95.9417 325° Northwest 412 474 36,000  Level Fort Worth Center
Sat 05:40:42 PM 31.7464 -96.0158 326° Northwest 417 480 36,000  Level Fort Worth Center
Sat 05:41:42 PM 31.8433 -96.0978 324° Northwest 426 490 36,000  Level Fort Worth Center
Sat 05:42:42 PM 31.9422 -96.1794 325° Northwest 426 490 36,000  Level Fort Worth Center
Sat 05:43:42 PM 32.0283 -96.2469 326° Northwest 426 490 36,000  Level Fort Worth Center
Sat 05:44:42 PM 32.1336 -96.3364 324° Northwest 426 490 36,000  Level Fort Worth Center
Sat 05:45:42 PM 32.2242 -96.4236 321° Northwest 431 496 36,000  Level Fort Worth Center
Sat 05:46:42 PM 32.3083 -96.5186 316° Northwest 426 490 36,000  Level Fort Worth Center
Sat 05:47:42 PM 32.3925 -96.6114 317° Northwest 413 475 36,000  Level Fort Worth Center
Sat 05:48:42 PM 32.4744 -96.7067 316° Northwest 408 470 36,000  Level Fort Worth Center
Sat 05:49:42 PM 32.5583 -96.8022 316° Northwest 408 470 36,000  Level Fort Worth Center
Sat 05:50:42 PM 32.6422 -96.8953 317° Northwest 408 470 36,000  Level Fort Worth Center
Sat 05:51:42 PM 32.7242 -96.9911 315° West 408 470 36,000  Level Fort Worth Center
Sat 05:52:42 PM 32.7975 -97.0772 315° West 408 470 36,000  Level Fort Worth Center
Sat 05:53:42 PM 32.8917 -97.1783 318° Northwest 408 470 36,000  Level Fort Worth Center
Sat 05:54:42 PM 32.9628 -97.2697 313° West 408 470 36,000  Level Fort Worth Center
Sat 05:55:42 PM 33.0525 -97.3886 312° West 425 489 36,000  Level Fort Worth Center
Sat 05:56:42 PM 33.1319 -97.4878 314° West 425 489 36,000  Level Fort Worth Center
Sat 05:57:42 PM 33.2111 -97.5872 314° West 413 475 36,000  Level Fort Worth Center
Sat 05:58:42 PM 33.2881 -97.6867 313° West 418 481 36,000  Level Fort Worth Center
Sat 05:59:42 PM 33.3692 -97.7889 314° West 418 481 36,000  Level Fort Worth Center
Sat 06:00:42 PM 33.4483 -97.8914 313° West 418 481 36,000  Level Fort Worth Center
Sat 06:01:42 PM 33.5189 -97.9842 312° West 423 487 36,000  Level Fort Worth Center
Sat 06:02:42 PM 33.5997 -98.0892 313° West 423 487 36,000  Level Fort Worth Center
Sat 06:03:42 PM 33.6806 -98.1922 313° West 423 487 36,000  Level Fort Worth Center
Sat 06:04:42 PM 33.7611 -98.2931 314° West 423 487 36,000  Level Fort Worth Center
Sat 06:05:42 PM 33.8397 -98.4011 311° West 423 487 36,000  Level Fort Worth Center
Sat 06:06:42 PM 33.9181 -98.5022 313° West 418 481 36,000  Level Fort Worth Center
Sat 06:07:42 PM 34.0028 -98.6186 311° West 418 481 36,000  Level Fort Worth Center
Sat 06:08:42 PM 34.0556 -98.7422 297° West 418 481 36,000  Level Fort Worth Center
Sat 06:09:42 PM 34.0961 -98.8556 293° West 407 468 36,000  Level Fort Worth Center
Sat 06:10:42 PM 34.1467 -98.9794 296° West 412 474 36,000  Level Fort Worth Center
Sat 06:11:42 PM 34.2075 -99.1186 298° West 412 474 36,000  Level Fort Worth Center
Sat 06:12:42 PM 34.2558 -99.2378 296° West 407 468 36,000  Level Fort Worth Center
Sat 06:13:42 PM 34.3103 -99.3644 298° West 407 468 36,000  Level Fort Worth Center
Sat 06:14:42 PM 34.3606 -99.4939 295° West 407 468 36,000  Level Fort Worth Center
Sat 06:15:42 PM 34.4125 -99.6186 297° West 413 475 36,000  Level Fort Worth Center
Sat 06:16:42 PM 34.4667 -99.7483 297° West 413 475 36,000  Level Fort Worth Center
Sat 06:19:06 PM 34.5875 -100.0506 296° West 423 487 36,000  Level Albuquerque Center
Sat 06:20:07 PM 34.6403 -100.1781 297° West 422 486 36,000  Level Albuquerque Center
Sat 06:21:09 PM 34.6919 -100.3075 296° West 422 486 36,000  Level Albuquerque Center
Sat 06:22:10 PM 34.7447 -100.4392 296° West 425 489 36,000  Level Albuquerque Center
Sat 06:23:12 PM 34.7972 -100.5678 296° West 426 490 36,000  Level Albuquerque Center
Sat 06:24:13 PM 34.8467 -100.6983 295° West 426 490 36,000  Level Albuquerque Center
Sat 06:25:15 PM 34.8983 -100.8289 296° West 428 493 36,000  Level Albuquerque Center
Sat 06:26:16 PM 34.9511 -100.9611 296° West 431 496 36,000  Level Albuquerque Center
Sat 06:27:17 PM 35.0017 -101.0939 295° West 433 498 36,000  Level Albuquerque Center
Sat 06:28:19 PM 35.0642 -101.2544 295° West 437 503 36,000  Level Albuquerque Center
Sat 06:29:20 PM 35.1081 -101.3667 296° West 437 503 36,000  Level Albuquerque Center
Sat 06:30:22 PM 35.1719 -101.5294 296° West 441 507 36,000  Level Albuquerque Center
Sat 06:31:23 PM 35.2247 -101.6681 295° West 442 509 36,000  Level Albuquerque Center
Sat 06:32:24 PM 35.2681 -101.8081 291° West 439 505 36,000  Level Albuquerque Center
Sat 06:33:26 PM 35.3061 -101.9525 288° West 441 507 36,000  Level Albuquerque Center
Sat 06:34:27 PM 35.3394 -102.0967 286° West 441 507 36,000  Level Albuquerque Center
Sat 06:35:29 PM 35.3775 -102.2392 288° West 441 507 36,000  Level Albuquerque Center
Sat 06:36:30 PM 35.4142 -102.3822 287° West 441 507 36,000  Level Albuquerque Center
Sat 06:37:32 PM 35.4511 -102.5272 287° West 445 512 36,000  Level Albuquerque Center
Sat 06:38:33 PM 35.4906 -102.6761 288° West 444 511 36,000  Level Albuquerque Center
Sat 06:39:34 PM 35.5283 -102.8233 288° West 448 516 36,000  Level Albuquerque Center
Sat 06:40:36 PM 35.5644 -102.9706 287° West 448 516 36,000  Level Albuquerque Center
Sat 06:41:37 PM 35.6033 -103.1211 288° West 457 526 36,000  Level Albuquerque Center
Sat 06:42:38 PM 35.6469 -103.2936 287° West 453 521 36,000  Level Albuquerque Center
Sat 06:43:40 PM 35.6847 -103.4436 287° West 456 525 36,000  Level Albuquerque Center
Sat 06:44:41 PM 35.7239 -103.5939 288° West 458 527 36,000  Level Albuquerque Center
Sat 06:45:42 PM 35.7606 -103.7442 287° West 458 527 36,000  Level Albuquerque Center
Sat 06:46:44 PM 35.7972 -103.8969 287° West 462 532 36,000  Level Albuquerque Center
Sat 06:47:45 PM 35.8333 -104.0481 286° West 461 531 36,000  Level Albuquerque Center
Sat 06:48:46 PM 35.8700 -104.2000 287° West 461 531 36,000  Level Albuquerque Center
Sat 06:49:48 PM 35.9067 -104.3514 287° West 461 531 36,000  Level Albuquerque Center
Sat 06:50:49 PM 35.9436 -104.5042 287° West 462 532 36,000  Level Albuquerque Center
Sat 06:51:50 PM 35.9806 -104.6564 287° West 462 532 36,000  Level Albuquerque Center
Sat 06:52:51 PM 36.0236 -104.8367 287° West 465 535 36,000  Level Albuquerque Center
Sat 06:53:53 PM 36.0583 -104.9928 285° West 468 539 36,000  Level Albuquerque Center
Sat 06:54:54 PM 36.0950 -105.1469 286° West 466 536 36,000  Level Albuquerque Center
Sat 06:55:55 PM 36.1300 -105.3025 286° West 466 536 36,000  Level Albuquerque Center
Sat 06:56:57 PM 36.1667 -105.4581 286° West 467 537 36,000  Level Albuquerque Center
Sat 06:57:58 PM 36.2031 -105.6153 286° West 467 537 36,000  Level Albuquerque Center
Sat 06:58:59 PM 36.2386 -105.7692 286° West 467 537 36,000  Level Albuquerque Center
Sat 07:00:00 PM 36.2742 -105.9239 286° West 468 539 36,000  Level Albuquerque Center
Sat 07:01:01 PM 36.3092 -106.0786 286° West 469 540 36,000  Level Albuquerque Center
Sat 07:02:03 PM 36.3497 -106.2533 286° West 466 536 36,000  Level Albuquerque Center
Sat 07:03:04 PM 36.3819 -106.4011 285° West 466 536 36,000  Level Albuquerque Center
Sat 07:04:05 PM 36.4156 -106.5483 286° West 464 534 36,000  Level Albuquerque Center
Sat 07:05:04 PM 36.4422 -106.6714 285° West 467 537 36,000  Level Denver Center
Sat 07:06:06 PM 36.4847 -106.8675 285° West 462 532 36,000  Level Denver Center
Sat 07:07:07 PM 36.5172 -107.0153 285° West 463 533 36,000  Level Denver Center
Sat 07:08:09 PM 36.5544 -107.1867 285° West 461 531 36,000  Level Denver Center
Sat 07:09:10 PM 36.5858 -107.3361 285° West 466 536 36,000  Level Denver Center
Sat 07:10:12 PM 36.6239 -107.5078 285° West 462 532 36,000  Level Denver Center
Sat 07:11:13 PM 36.6553 -107.6567 285° West 462 532 36,000  Level Denver Center
Sat 07:12:27 PM 36.6675 -107.8089 276° West 464 534 36,000  Level Denver Center
Sat 07:13:29 PM 36.6839 -108.0133 276° West 467 537 36,000  Level Denver Center
Sat 07:14:30 PM 36.7017 -108.1903 277° West 464 534 36,000  Level Denver Center
Sat 07:15:32 PM 36.7400 -108.3347 288° West 460 529 36,000  Level Denver Center
Sat 07:16:33 PM 36.7800 -108.4803 289° West 462 532 36,000  Level Denver Center
Sat 07:17:35 PM 36.8261 -108.6467 289° West 457 526 36,000  Level Denver Center
Sat 07:18:36 PM 36.8661 -108.7911 289° West 461 531 36,000  Level Denver Center
Sat 07:19:50 PM 36.9117 -108.9597 289° West 461 531 36,000  Level Denver Center
Sat 07:20:51 PM 36.9581 -109.1250 289° West 455 524 36,000  Level Denver Center
Sat 07:21:53 PM 37.0019 -109.2939 288° West 457 526 36,000  Level Denver Center
Sat 07:22:55 PM 37.0414 -109.4353 289° West 453 521 36,000  Level Denver Center
Sat 07:23:56 PM 37.0858 -109.6017 289° West 452 520 36,000  Level Denver Center
Sat 07:24:58 PM 37.1231 -109.7431 288° West 450 518 36,000  Level Denver Center
Sat 07:25:59 PM 37.1542 -109.8614 288° West 448 516 36,000  Level Denver Center
Sat 07:27:01 PM 37.2050 -110.0525 289° West 454 522 36,000  Level Denver Center
Sat 07:28:02 PM 37.2486 -110.2169 288° West 453 521 36,000  Level Denver Center
Sat 07:29:04 PM 37.2878 -110.3683 288° West 457 526 36,000  Level Denver Center
Sat 07:30:05 PM 37.3275 -110.5214 288° West 462 532 36,000  Level Denver Center
Sat 07:31:07 PM 37.3658 -110.6725 288° West 457 526 36,000  Level Denver Center
Sat 07:32:08 PM 37.4061 -110.8261 288° West 462 532 36,000  Level Denver Center
Sat 07:33:10 PM 37.4439 -110.9733 288° West 449 517 36,000  Level Denver Center
Sat 07:34:11 PM 37.4803 -111.1192 287° West 441 507 36,000  Level Denver Center
Sat 07:35:13 PM 37.5172 -111.2686 287° West 444 511 36,000  Level Denver Center
Sat 07:36:14 PM 37.5617 -111.4533 287° West 457 526 36,000  Level Denver Center
Sat 07:37:16 PM 37.6011 -111.6092 288° West 463 533 36,000  Level Denver Center
Sat 07:38:01 PM 37.6250 -111.7044 288° West 469 540 36,000  Level Salt Lake Center
Sat 07:39:02 PM 37.6717 -111.8928 287° West 472 543 36,000  Level Salt Lake Center
Sat 07:40:03 PM 37.7100 -112.0492 287° West 470 541 36,000  Level Salt Lake Center
Sat 07:41:05 PM 37.7478 -112.2067 287° West 471 542 36,000  Level Salt Lake Center
Sat 07:42:06 PM 37.7864 -112.3642 287° West 472 543 36,000  Level Salt Lake Center
Sat 07:43:07 PM 37.8236 -112.5228 287° West 475 547 36,000  Level Salt Lake Center
Sat 07:44:08 PM 37.8614 -112.6817 287° West 477 549 36,000  Level Salt Lake Center
Sat 07:45:10 PM 37.8992 -112.8394 287° West 477 549 36,000  Level Salt Lake Center
Sat 07:46:11 PM 37.9425 -113.0294 286° West 476 548 36,000  Level Salt Lake Center
Sat 07:47:12 PM 37.9792 -113.1886 286° West 476 548 36,000  Level Salt Lake Center
Sat 07:48:13 PM 38.0153 -113.3475 286° West 473 544 36,000  Level Salt Lake Center
Sat 07:49:15 PM 38.0511 -113.5064 286° West 472 543 36,000  Level Salt Lake Center
Sat 07:50:16 PM 38.0869 -113.6658 286° West 472 543 36,000  Level Salt Lake Center
Sat 07:51:17 PM 38.1228 -113.8258 286° West 473 544 36,000  Level Salt Lake Center
Sat 07:52:18 PM 38.1536 -113.9856 284° West 471 542 36,000  Level Salt Lake Center
Sat 07:53:19 PM 38.1475 -114.1558 267° West 478 550 36,000  Level Salt Lake Center
Sat 07:54:20 PM 38.1408 -114.3247 267° West 481 554 36,000  Level Salt Lake Center
Sat 07:55:22 PM 38.1367 -114.5267 269° West 480 552 36,000  Level Salt Lake Center
Sat 07:56:23 PM 38.1331 -114.6942 268° West 479 551 36,000  Level Salt Lake Center
Sat 07:57:24 PM 38.1286 -114.8639 268° West 480 552 36,000  Level Salt Lake Center
Sat 07:58:25 PM 38.1231 -115.0322 268° West 480 552 36,000  Level Salt Lake Center
Sat 07:59:26 PM 38.1172 -115.2019 268° West 481 554 36,000  Level Salt Lake Center
Sat 08:00:27 PM 38.1111 -115.3753 267° West 484 557 36,000  Level Salt Lake Center
Sat 08:01:28 PM 38.1033 -115.5453 267° West 484 557 36,000  Level Salt Lake Center
Sat 08:02:29 PM 38.0964 -115.7147 267° West 482 555 36,000  Level Salt Lake Center
Sat 08:03:30 PM 38.0906 -115.8842 268° West 481 554 36,000  Level Salt Lake Center
Sat 08:04:32 PM 38.0864 -116.0542 268° West 481 554 36,000  Level Salt Lake Center
Sat 08:05:33 PM 38.0786 -116.2228 267° West 480 552 36,000  Level Salt Lake Center
Sat 08:06:34 PM 38.0714 -116.3922 267° West 481 554 36,000  Level Salt Lake Center
Sat 08:07:35 PM 38.0622 -116.5950 267° West 479 551 36,000  Level Salt Lake Center
Sat 08:08:36 PM 38.0544 -116.7644 267° West 480 552 36,000  Level Salt Lake Center
Sat 08:09:37 PM 38.0467 -116.9347 267° West 481 554 36,000  Level Salt Lake Center
Sat 08:10:38 PM 38.0381 -117.1058 266° West 479 551 36,000  Level Salt Lake Center
Sat 08:11:40 PM 38.0283 -117.2803 266° West 479 551 36,000  Level Oakland Center
Sat 08:12:41 PM 38.0194 -117.4519 266° West 481 554 36,000  Level Oakland Center
Sat 08:13:42 PM 38.0108 -117.6200 266° West 477 549 36,000  Level Oakland Center
Sat 08:14:43 PM 38.0008 -117.7858 266° West 473 544 36,000  Level Oakland Center
Sat 08:15:44 PM 37.9839 -117.9497 263° West 471 542 36,000  Level Oakland Center
Sat 08:16:45 PM 37.9658 -118.1131 262° West 468 539 36,000  Level Oakland Center
Sat 08:17:46 PM 37.9483 -118.2761 262° West 467 537 36,000  Level Oakland Center
Sat 08:18:48 PM 37.9297 -118.4389 262° West 467 537 36,000  Level Oakland Center
Sat 08:19:49 PM 37.9117 -118.6011 262° West 466 536 36,000  Level Oakland Center
Sat 08:20:50 PM 37.8925 -118.7631 262° West 465 535 36,000  Level Oakland Center
Sat 08:21:51 PM 37.8772 -118.9253 263° West 463 533 36,000  Level Oakland Center
Sat 08:22:52 PM 37.8581 -119.1019 262° West 463 533 36,000  Level Oakland Center
Sat 08:23:53 PM 37.8381 -119.2633 261° West 464 534 36,000  Level Oakland Center
Sat 08:24:54 PM 37.8203 -119.4239 262° West 463 533 36,000  Level Oakland Center
Sat 08:25:55 PM 37.8000 -119.5844 261° West 462 532 36,000  Level Oakland Center
Sat 08:26:56 PM 37.7811 -119.7450 262° West 462 532 36,000 -197 Level Oakland Center
Sat 08:27:57 PM 37.7617 -119.9064 261° West 463 533 35,600 -836 Descending Oakland Center
Sat 08:28:58 PM 37.7414 -120.0681 261° West 463 533 34,300 -1,721 Descending Oakland Center
Sat 08:29:59 PM 37.7208 -120.2325 261° West 470 541 32,100 -2,016 Descending Oakland Center
Sat 08:31:00 PM 37.6994 -120.3981 261° West 477 549 30,200 -2,049 Descending Oakland Center
Sat 08:32:02 PM 37.6792 -120.5575 261° West 463 533 27,900 -2,262 Descending Oakland Center
Sat 08:33:02 PM 37.6608 -120.7103 261° West 442 509 25,600 -2,625 Descending Oakland Center
Sat 08:33:54 PM 37.6333 -120.8667 258° West 433 498 23,000 -2,887 Descending Northern Cal TRACON
Sat 08:34:48 PM 37.6167 -121.0000 261° West 423 487 20,500 -2,750 Descending Northern Cal TRACON
Sat 08:35:54 PM 37.6000 -121.1500 262° West 392 451 17,500 -2,950 Descending Northern Cal TRACON
Sat 08:36:48 PM 37.5833 -121.2667 260° West 373 429 14,600 -3,000 Descending Northern Cal TRACON
Sat 08:37:54 PM 37.5667 -121.4000 261° West 360 414 11,500 -1,762 Descending Northern Cal TRACON
Sat 08:38:54 PM 37.5500 -121.5167 260° West 350 403 10,900 -300 Descending Northern Cal TRACON
Sat 08:39:54 PM 37.5333 -121.6333 260° West 315 362 10,900 -700 Level Northern Cal TRACON
Sat 08:40:54 PM 37.5167 -121.7333 258° West 291 335 9,500 -1,211 Descending Northern Cal TRACON
Sat 08:41:48 PM 37.5000 -121.8167 256° West 280 322 8,600 -789 Descending Northern Cal TRACON
Sat 08:42:48 PM 37.4833 -121.9000 256° West 276 318 8,000 -700 Descending Northern Cal TRACON
Sat 08:43:48 PM 37.5000 -122.0000 282° West 264 304 7,200 -1,050 Descending Northern Cal TRACON
Sat 08:44:48 PM 37.5333 -122.0667 302° West 221 254 5,900 -1,350 Descending Northern Cal TRACON
Sat 08:45:48 PM 37.5500 -122.1333 288° West 217 250 4,500 -1,310 Descending Northern Cal TRACON
Sat 08:46:15 PM 37.5564 -122.1689 283° West 215 247 4,000 -1,500 Descending Oakland Center
Sat 08:47:16 PM 37.5725 -122.2275 289° West 192 221 2,300 -1,328 Descending Oakland Center
Sat 08:48:17 PM 37.5836 -122.2844 284° West 179 206 1,300 -836 Descending Oakland Center
Sat 08:49:18 PM 37.5964 -122.3267 291° West 150 173 600 -689 Descending Oakland Center

Login

Don't have an account? Register now (free) for customized features, flight alerts, and more!